sensor_id;sensor_type;location;lat;lon;timestamp;P1;durP1;ratioP1;P2;durP2;ratioP2
21593;SDS011;10959;51.328;7.322;2023-04-24T00:01:17;1.27;;;0.60;;
21593;SDS011;10959;51.328;7.322;2023-04-24T00:03:44;0.93;;;0.83;;
21593;SDS011;10959;51.328;7.322;2023-04-24T00:06:10;1.43;;;0.50;;
21593;SDS011;10959;51.328;7.322;2023-04-24T00:08:37;1.37;;;0.50;;
21593;SDS011;10959;51.328;7.322;2023-04-24T00:11:05;1.30;;;0.50;;
21593;SDS011;10959;51.328;7.322;2023-04-24T00:13:31;1.23;;;0.70;;
21593;SDS011;10959;51.328;7.322;2023-04-24T00:15:58;1.80;;;0.80;;
21593;SDS011;10959;51.328;7.322;2023-04-24T00:18:24;2.00;;;0.50;;
21593;SDS011;10959;51.328;7.322;2023-04-24T00:20:51;0.90;;;0.70;;
21593;SDS011;10959;51.328;7.322;2023-04-24T00:23:18;1.07;;;0.63;;
21593;SDS011;10959;51.328;7.322;2023-04-24T00:25:44;0.67;;;0.50;;
21593;SDS011;10959;51.328;7.322;2023-04-24T00:28:12;1.07;;;0.70;;
21593;SDS011;10959;51.328;7.322;2023-04-24T00:30:38;1.37;;;0.50;;
21593;SDS011;10959;51.328;7.322;2023-04-24T00:33:06;2.60;;;0.90;;
21593;SDS011;10959;51.328;7.322;2023-04-24T00:35:32;0.57;;;0.57;;
21593;SDS011;10959;51.328;7.322;2023-04-24T00:37:59;0.70;;;0.70;;
21593;SDS011;10959;51.328;7.322;2023-04-24T00:40:25;0.50;;;0.50;;
21593;SDS011;10959;51.328;7.322;2023-04-24T00:42:52;0.70;;;0.60;;
21593;SDS011;10959;51.328;7.322;2023-04-24T00:45:20;0.90;;;0.60;;
21593;SDS011;10959;51.328;7.322;2023-04-24T00:47:47;0.90;;;0.80;;
21593;SDS011;10959;51.328;7.322;2023-04-24T00:50:14;1.30;;;0.70;;
21593;SDS011;10959;51.328;7.322;2023-04-24T00:52:41;1.50;;;0.90;;
21593;SDS011;10959;51.328;7.322;2023-04-24T00:55:08;2.07;;;0.87;;
21593;SDS011;10959;51.328;7.322;2023-04-24T00:57:35;1.00;;;0.80;;
21593;SDS011;10959;51.328;7.322;2023-04-24T01:00:02;1.63;;;0.87;;
21593;SDS011;10959;51.328;7.322;2023-04-24T01:02:32;1.40;;;0.60;;
21593;SDS011;10959;51.328;7.322;2023-04-24T01:04:59;0.90;;;0.67;;
21593;SDS011;10959;51.328;7.322;2023-04-24T01:07:26;0.80;;;0.80;;
21593;SDS011;10959;51.328;7.322;2023-04-24T01:09:53;1.47;;;0.80;;
21593;SDS011;10959;51.328;7.322;2023-04-24T01:12:19;1.30;;;1.00;;
21593;SDS011;10959;51.328;7.322;2023-04-24T01:14:46;0.67;;;0.60;;
21593;SDS011;10959;51.328;7.322;2023-04-24T01:17:12;1.23;;;1.10;;
21593;SDS011;10959;51.328;7.322;2023-04-24T01:19:41;1.20;;;1.00;;
21593;SDS011;10959;51.328;7.322;2023-04-24T01:22:11;1.30;;;1.20;;
21593;SDS011;10959;51.328;7.322;2023-04-24T01:24:39;1.40;;;1.10;;
21593;SDS011;10959;51.328;7.322;2023-04-24T01:27:05;1.73;;;1.40;;
21593;SDS011;10959;51.328;7.322;2023-04-24T01:29:33;1.50;;;1.40;;
21593;SDS011;10959;51.328;7.322;2023-04-24T01:32:00;4.37;;;1.30;;
21593;SDS011;10959;51.328;7.322;2023-04-24T01:34:26;1.60;;;1.10;;
21593;SDS011;10959;51.328;7.322;2023-04-24T01:36:53;2.67;;;1.23;;
21593;SDS011;10959;51.328;7.322;2023-04-24T01:39:22;1.20;;;1.10;;
21593;SDS011;10959;51.328;7.322;2023-04-24T01:41:50;1.47;;;1.00;;
21593;SDS011;10959;51.328;7.322;2023-04-24T01:44:17;1.23;;;1.13;;
21593;SDS011;10959;51.328;7.322;2023-04-24T01:46:44;1.90;;;1.47;;
21593;SDS011;10959;51.328;7.322;2023-04-24T01:49:10;2.07;;;1.00;;
21593;SDS011;10959;51.328;7.322;2023-04-24T01:51:37;1.57;;;1.07;;
21593;SDS011;10959;51.328;7.322;2023-04-24T01:54:03;1.70;;;1.60;;
21593;SDS011;10959;51.328;7.322;2023-04-24T01:56:32;2.27;;;1.60;;
21593;SDS011;10959;51.328;7.322;2023-04-24T01:59:00;1.87;;;1.30;;
21593;SDS011;10959;51.328;7.322;2023-04-24T02:01:31;2.53;;;1.60;;
21593;SDS011;10959;51.328;7.322;2023-04-24T02:03:59;3.20;;;1.63;;
21593;SDS011;10959;51.328;7.322;2023-04-24T02:06:26;1.93;;;1.73;;
21593;SDS011;10959;51.328;7.322;2023-04-24T02:08:53;2.53;;;1.67;;
21593;SDS011;10959;51.328;7.322;2023-04-24T02:11:19;2.40;;;1.67;;
21593;SDS011;10959;51.328;7.322;2023-04-24T02:13:47;1.80;;;1.70;;
21593;SDS011;10959;51.328;7.322;2023-04-24T02:16:13;3.23;;;1.97;;
21593;SDS011;10959;51.328;7.322;2023-04-24T02:18:40;3.33;;;2.17;;
21593;SDS011;10959;51.328;7.322;2023-04-24T02:21:06;2.20;;;2.00;;
21593;SDS011;10959;51.328;7.322;2023-04-24T02:23:33;3.40;;;2.47;;
21593;SDS011;10959;51.328;7.322;2023-04-24T02:25:59;4.20;;;2.70;;
21593;SDS011;10959;51.328;7.322;2023-04-24T02:28:25;2.43;;;2.10;;
21593;SDS011;10959;51.328;7.322;2023-04-24T02:30:53;2.40;;;2.20;;
21593;SDS011;10959;51.328;7.322;2023-04-24T02:33:20;2.20;;;2.00;;
21593;SDS011;10959;51.328;7.322;2023-04-24T02:35:46;2.27;;;2.07;;
21593;SDS011;10959;51.328;7.322;2023-04-24T02:38:12;2.40;;;2.20;;
21593;SDS011;10959;51.328;7.322;2023-04-24T02:40:39;2.90;;;2.70;;
21593;SDS011;10959;51.328;7.322;2023-04-24T02:43:05;4.33;;;3.93;;
21593;SDS011;10959;51.328;7.322;2023-04-24T02:45:32;6.10;;;4.43;;
21593;SDS011;10959;51.328;7.322;2023-04-24T02:48:01;5.87;;;5.20;;
21593;SDS011;10959;51.328;7.322;2023-04-24T02:50:27;5.47;;;4.27;;
21593;SDS011;10959;51.328;7.322;2023-04-24T02:52:53;6.20;;;5.17;;
21593;SDS011;10959;51.328;7.322;2023-04-24T02:55:20;6.23;;;5.63;;
21593;SDS011;10959;51.328;7.322;2023-04-24T02:57:46;7.20;;;6.50;;
21593;SDS011;10959;51.328;7.322;2023-04-24T03:00:13;7.63;;;6.93;;
21593;SDS011;10959;51.328;7.322;2023-04-24T03:02:39;7.20;;;6.50;;
21593;SDS011;10959;51.328;7.322;2023-04-24T03:05:08;8.27;;;7.40;;
21593;SDS011;10959;51.328;7.322;2023-04-24T03:07:36;7.90;;;7.10;;
21593;SDS011;10959;51.328;7.322;2023-04-24T03:10:03;8.93;;;7.37;;
21593;SDS011;10959;51.328;7.322;2023-04-24T03:12:30;7.87;;;7.03;;
21593;SDS011;10959;51.328;7.322;2023-04-24T03:14:57;9.57;;;6.77;;
21593;SDS011;10959;51.328;7.322;2023-04-24T03:17:23;8.50;;;7.67;;
21593;SDS011;10959;51.328;7.322;2023-04-24T03:19:50;9.27;;;7.10;;
21593;SDS011;10959;51.328;7.322;2023-04-24T03:22:18;7.73;;;7.03;;
21593;SDS011;10959;51.328;7.322;2023-04-24T03:24:44;7.47;;;6.57;;
21593;SDS011;10959;51.328;7.322;2023-04-24T03:27:11;9.07;;;7.40;;
21593;SDS011;10959;51.328;7.322;2023-04-24T03:29:37;8.77;;;7.87;;
21593;SDS011;10959;51.328;7.322;2023-04-24T03:32:03;7.73;;;7.00;;
21593;SDS011;10959;51.328;7.322;2023-04-24T03:34:30;7.37;;;6.63;;
21593;SDS011;10959;51.328;7.322;2023-04-24T03:36:56;10.67;;;7.87;;
21593;SDS011;10959;51.328;7.322;2023-04-24T03:39:24;9.77;;;8.00;;
21593;SDS011;10959;51.328;7.322;2023-04-24T03:41:52;8.43;;;7.50;;
21593;SDS011;10959;51.328;7.322;2023-04-24T03:44:18;8.40;;;7.40;;
21593;SDS011;10959;51.328;7.322;2023-04-24T03:46:45;8.40;;;6.90;;
21593;SDS011;10959;51.328;7.322;2023-04-24T03:49:11;8.17;;;7.33;;
21593;SDS011;10959;51.328;7.322;2023-04-24T03:51:38;7.90;;;7.10;;
21593;SDS011;10959;51.328;7.322;2023-04-24T03:54:04;7.80;;;6.73;;
21593;SDS011;10959;51.328;7.322;2023-04-24T03:56:32;8.00;;;7.07;;
21593;SDS011;10959;51.328;7.322;2023-04-24T03:58:58;8.60;;;7.00;;
21593;SDS011;10959;51.328;7.322;2023-04-24T04:01:25;7.70;;;6.90;;
21593;SDS011;10959;51.328;7.322;2023-04-24T04:03:53;7.20;;;6.50;;
21593;SDS011;10959;51.328;7.322;2023-04-24T04:06:19;6.77;;;6.17;;
21593;SDS011;10959;51.328;7.322;2023-04-24T04:08:46;7.30;;;6.60;;
21593;SDS011;10959;51.328;7.322;2023-04-24T04:11:12;8.43;;;7.63;;
21593;SDS011;10959;51.328;7.322;2023-04-24T04:13:41;7.67;;;6.77;;
21593;SDS011;10959;51.328;7.322;2023-04-24T04:16:08;9.27;;;8.37;;
21593;SDS011;10959;51.328;7.322;2023-04-24T04:18:34;8.53;;;6.93;;
21593;SDS011;10959;51.328;7.322;2023-04-24T04:21:01;9.43;;;7.80;;
21593;SDS011;10959;51.328;7.322;2023-04-24T04:23:27;8.20;;;6.43;;
21593;SDS011;10959;51.328;7.322;2023-04-24T04:25:54;9.13;;;7.50;;
21593;SDS011;10959;51.328;7.322;2023-04-24T04:28:21;13.10;;;7.57;;
21593;SDS011;10959;51.328;7.322;2023-04-24T04:30:49;9.00;;;7.30;;
21593;SDS011;10959;51.328;7.322;2023-04-24T04:33:18;7.90;;;7.10;;
21593;SDS011;10959;51.328;7.322;2023-04-24T04:35:45;8.27;;;7.47;;
21593;SDS011;10959;51.328;7.322;2023-04-24T04:38:13;10.27;;;7.70;;
21593;SDS011;10959;51.328;7.322;2023-04-24T04:40:40;8.73;;;7.83;;
21593;SDS011;10959;51.328;7.322;2023-04-24T04:43:07;8.37;;;7.57;;
21593;SDS011;10959;51.328;7.322;2023-04-24T04:45:33;8.93;;;8.03;;
21593;SDS011;10959;51.328;7.322;2023-04-24T04:48:01;8.87;;;7.80;;
21593;SDS011;10959;51.328;7.322;2023-04-24T04:50:28;9.70;;;8.63;;
21593;SDS011;10959;51.328;7.322;2023-04-24T04:52:55;9.87;;;7.43;;
21593;SDS011;10959;51.328;7.322;2023-04-24T04:55:21;9.30;;;8.00;;
21593;SDS011;10959;51.328;7.322;2023-04-24T04:57:48;9.63;;;7.97;;
21593;SDS011;10959;51.328;7.322;2023-04-24T05:00:15;9.00;;;7.50;;
21593;SDS011;10959;51.328;7.322;2023-04-24T05:02:41;8.47;;;7.47;;
21593;SDS011;10959;51.328;7.322;2023-04-24T05:05:09;8.37;;;7.47;;
21593;SDS011;10959;51.328;7.322;2023-04-24T05:07:36;8.57;;;7.33;;
21593;SDS011;10959;51.328;7.322;2023-04-24T05:10:03;8.70;;;7.10;;
21593;SDS011;10959;51.328;7.322;2023-04-24T05:12:30;8.33;;;7.27;;
21593;SDS011;10959;51.328;7.322;2023-04-24T05:14:56;8.07;;;6.87;;
21593;SDS011;10959;51.328;7.322;2023-04-24T05:17:22;7.33;;;6.63;;
21593;SDS011;10959;51.328;7.322;2023-04-24T05:19:49;7.60;;;6.00;;
21593;SDS011;10959;51.328;7.322;2023-04-24T05:22:17;9.37;;;7.07;;
21593;SDS011;10959;51.328;7.322;2023-04-24T05:24:45;7.93;;;6.53;;
21593;SDS011;10959;51.328;7.322;2023-04-24T05:27:12;8.03;;;6.97;;
21593;SDS011;10959;51.328;7.322;2023-04-24T05:29:40;8.03;;;6.97;;
21593;SDS011;10959;51.328;7.322;2023-04-24T05:32:06;7.47;;;6.77;;
21593;SDS011;10959;51.328;7.322;2023-04-24T05:34:33;7.77;;;7.00;;
21593;SDS011;10959;51.328;7.322;2023-04-24T05:36:59;7.07;;;6.33;;
21593;SDS011;10959;51.328;7.322;2023-04-24T05:39:27;6.80;;;6.10;;
21593;SDS011;10959;51.328;7.322;2023-04-24T05:41:54;8.47;;;7.13;;
21593;SDS011;10959;51.328;7.322;2023-04-24T05:44:22;8.20;;;6.70;;
21593;SDS011;10959;51.328;7.322;2023-04-24T05:46:49;7.30;;;6.57;;
21593;SDS011;10959;51.328;7.322;2023-04-24T05:49:15;7.67;;;6.40;;
21593;SDS011;10959;51.328;7.322;2023-04-24T05:51:42;7.13;;;6.03;;
21593;SDS011;10959;51.328;7.322;2023-04-24T05:54:08;7.77;;;7.00;;
21593;SDS011;10959;51.328;7.322;2023-04-24T05:56:38;7.30;;;6.40;;
21593;SDS011;10959;51.328;7.322;2023-04-24T05:59:05;9.83;;;6.77;;
21593;SDS011;10959;51.328;7.322;2023-04-24T06:01:32;6.73;;;6.00;;
21593;SDS011;10959;51.328;7.322;2023-04-24T06:03:58;6.90;;;6.10;;
21593;SDS011;10959;51.328;7.322;2023-04-24T06:06:25;6.03;;;5.53;;
21593;SDS011;10959;51.328;7.322;2023-04-24T06:08:52;7.00;;;5.90;;
21593;SDS011;10959;51.328;7.322;2023-04-24T06:11:18;6.10;;;5.50;;
21593;SDS011;10959;51.328;7.322;2023-04-24T06:13:46;6.20;;;5.43;;
21593;SDS011;10959;51.328;7.322;2023-04-24T06:16:13;6.17;;;5.57;;
21593;SDS011;10959;51.328;7.322;2023-04-24T06:18:39;5.70;;;5.20;;
21593;SDS011;10959;51.328;7.322;2023-04-24T06:21:06;6.20;;;5.60;;
21593;SDS011;10959;51.328;7.322;2023-04-24T06:23:32;5.43;;;4.93;;
21593;SDS011;10959;51.328;7.322;2023-04-24T06:25:59;4.83;;;4.43;;
21593;SDS011;10959;51.328;7.322;2023-04-24T06:28:25;5.30;;;4.80;;
21593;SDS011;10959;51.328;7.322;2023-04-24T06:30:53;5.30;;;4.80;;
21593;SDS011;10959;51.328;7.322;2023-04-24T06:33:19;6.20;;;5.17;;
21593;SDS011;10959;51.328;7.322;2023-04-24T06:35:47;5.63;;;4.97;;
21593;SDS011;10959;51.328;7.322;2023-04-24T06:38:13;7.10;;;5.03;;
21593;SDS011;10959;51.328;7.322;2023-04-24T06:40:41;5.57;;;4.20;;
21593;SDS011;10959;51.328;7.322;2023-04-24T06:43:07;4.73;;;4.23;;
21593;SDS011;10959;51.328;7.322;2023-04-24T06:45:34;4.87;;;4.33;;
21593;SDS011;10959;51.328;7.322;2023-04-24T06:48:02;5.30;;;4.80;;
21593;SDS011;10959;51.328;7.322;2023-04-24T06:50:28;5.70;;;5.13;;
21593;SDS011;10959;51.328;7.322;2023-04-24T06:52:55;5.77;;;5.17;;
21593;SDS011;10959;51.328;7.322;2023-04-24T06:55:21;5.77;;;4.90;;
21593;SDS011;10959;51.328;7.322;2023-04-24T06:57:48;5.43;;;4.97;;
21593;SDS011;10959;51.328;7.322;2023-04-24T07:00:15;5.07;;;4.57;;
21593;SDS011;10959;51.328;7.322;2023-04-24T07:02:41;5.87;;;5.27;;
21593;SDS011;10959;51.328;7.322;2023-04-24T07:05:09;4.77;;;4.37;;
21593;SDS011;10959;51.328;7.322;2023-04-24T07:07:36;5.67;;;5.07;;
21593;SDS011;10959;51.328;7.322;2023-04-24T07:10:03;6.43;;;5.77;;
21593;SDS011;10959;51.328;7.322;2023-04-24T07:12:30;4.47;;;4.07;;
21593;SDS011;10959;51.328;7.322;2023-04-24T07:14:56;4.33;;;3.93;;
21593;SDS011;10959;51.328;7.322;2023-04-24T07:17:23;3.97;;;3.57;;
21593;SDS011;10959;51.328;7.322;2023-04-24T07:19:49;4.00;;;3.70;;
21593;SDS011;10959;51.328;7.322;2023-04-24T07:22:17;3.30;;;3.00;;
21593;SDS011;10959;51.328;7.322;2023-04-24T07:24:44;4.23;;;3.83;;
21593;SDS011;10959;51.328;7.322;2023-04-24T07:27:10;3.50;;;3.00;;
21593;SDS011;10959;51.328;7.322;2023-04-24T07:29:39;3.63;;;3.30;;
21593;SDS011;10959;51.328;7.322;2023-04-24T07:32:06;4.53;;;3.00;;
21593;SDS011;10959;51.328;7.322;2023-04-24T07:34:34;3.60;;;2.93;;
21593;SDS011;10959;51.328;7.322;2023-04-24T07:37:00;3.60;;;2.63;;
21593;SDS011;10959;51.328;7.322;2023-04-24T07:39:30;3.63;;;2.70;;
21593;SDS011;10959;51.328;7.322;2023-04-24T07:41:57;3.23;;;2.77;;
21593;SDS011;10959;51.328;7.322;2023-04-24T07:44:24;2.43;;;2.23;;
21593;SDS011;10959;51.328;7.322;2023-04-24T07:46:51;3.90;;;2.70;;
21593;SDS011;10959;51.328;7.322;2023-04-24T07:49:17;3.77;;;2.30;;
21593;SDS011;10959;51.328;7.322;2023-04-24T07:51:44;2.47;;;2.10;;
21593;SDS011;10959;51.328;7.322;2023-04-24T07:54:11;1.87;;;1.77;;
21593;SDS011;10959;51.328;7.322;2023-04-24T07:56:39;1.60;;;1.50;;
21593;SDS011;10959;51.328;7.322;2023-04-24T07:59:07;1.80;;;1.63;;
21593;SDS011;10959;51.328;7.322;2023-04-24T08:01:34;1.53;;;1.30;;
21593;SDS011;10959;51.328;7.322;2023-04-24T08:04:01;1.20;;;1.10;;
21593;SDS011;10959;51.328;7.322;2023-04-24T08:06:28;1.63;;;1.20;;
21593;SDS011;10959;51.328;7.322;2023-04-24T08:08:55;1.70;;;1.10;;
21593;SDS011;10959;51.328;7.322;2023-04-24T08:11:22;2.13;;;1.20;;
21593;SDS011;10959;51.328;7.322;2023-04-24T08:13:50;1.60;;;1.10;;
21593;SDS011;10959;51.328;7.322;2023-04-24T08:16:17;1.73;;;1.00;;
21593;SDS011;10959;51.328;7.322;2023-04-24T08:18:43;2.43;;;0.80;;
21593;SDS011;10959;51.328;7.322;2023-04-24T08:21:10;1.03;;;0.80;;
21593;SDS011;10959;51.328;7.322;2023-04-24T08:23:37;1.60;;;0.70;;
21593;SDS011;10959;51.328;7.322;2023-04-24T08:26:04;1.37;;;0.60;;
21593;SDS011;10959;51.328;7.322;2023-04-24T08:28:32;0.83;;;0.60;;
21593;SDS011;10959;51.328;7.322;2023-04-24T08:31:00;0.80;;;0.70;;
21593;SDS011;10959;51.328;7.322;2023-04-24T08:33:26;1.03;;;0.60;;
21593;SDS011;10959;51.328;7.322;2023-04-24T08:35:57;0.83;;;0.60;;
21593;SDS011;10959;51.328;7.322;2023-04-24T08:38:25;0.80;;;0.50;;
21593;SDS011;10959;51.328;7.322;2023-04-24T08:40:52;0.60;;;0.57;;
21593;SDS011;10959;51.328;7.322;2023-04-24T08:43:19;1.27;;;0.80;;
21593;SDS011;10959;51.328;7.322;2023-04-24T08:45:48;0.50;;;0.50;;
21593;SDS011;10959;51.328;7.322;2023-04-24T08:48:16;0.70;;;0.40;;
21593;SDS011;10959;51.328;7.322;2023-04-24T08:50:43;0.90;;;0.67;;
21593;SDS011;10959;51.328;7.322;2023-04-24T08:53:10;0.77;;;0.50;;
21593;SDS011;10959;51.328;7.322;2023-04-24T08:55:37;0.80;;;0.63;;
21593;SDS011;10959;51.328;7.322;2023-04-24T08:58:04;0.70;;;0.53;;
21593;SDS011;10959;51.328;7.322;2023-04-24T09:00:30;1.17;;;1.07;;
21593;SDS011;10959;51.328;7.322;2023-04-24T09:02:57;0.50;;;0.50;;
21593;SDS011;10959;51.328;7.322;2023-04-24T09:05:27;0.60;;;0.60;;
21593;SDS011;10959;51.328;7.322;2023-04-24T09:07:55;0.50;;;0.50;;
21593;SDS011;10959;51.328;7.322;2023-04-24T09:10:23;0.40;;;0.40;;
21593;SDS011;10959;51.328;7.322;2023-04-24T09:12:51;0.60;;;0.50;;
21593;SDS011;10959;51.328;7.322;2023-04-24T09:15:18;0.90;;;0.50;;
21593;SDS011;10959;51.328;7.322;2023-04-24T09:17:45;0.80;;;0.50;;
21593;SDS011;10959;51.328;7.322;2023-04-24T09:20:12;0.47;;;0.40;;
21593;SDS011;10959;51.328;7.322;2023-04-24T09:22:40;1.13;;;0.87;;
21593;SDS011;10959;51.328;7.322;2023-04-24T09:25:08;4.20;;;0.80;;
21593;SDS011;10959;51.328;7.322;2023-04-24T09:27:38;0.67;;;0.40;;
21593;SDS011;10959;51.328;7.322;2023-04-24T09:30:08;0.40;;;0.40;;
21593;SDS011;10959;51.328;7.322;2023-04-24T09:32:35;1.03;;;0.63;;
21593;SDS011;10959;51.328;7.322;2023-04-24T09:35:06;0.83;;;0.60;;
21593;SDS011;10959;51.328;7.322;2023-04-24T09:37:37;1.50;;;0.90;;
21593;SDS011;10959;51.328;7.322;2023-04-24T09:40:08;0.90;;;0.70;;
21593;SDS011;10959;51.328;7.322;2023-04-24T09:42:39;1.70;;;0.67;;
21593;SDS011;10959;51.328;7.322;2023-04-24T09:45:09;0.80;;;0.73;;
21593;SDS011;10959;51.328;7.322;2023-04-24T09:47:36;1.47;;;1.30;;
21593;SDS011;10959;51.328;7.322;2023-04-24T09:50:09;1.47;;;1.20;;
21593;SDS011;10959;51.328;7.322;2023-04-24T09:52:36;1.73;;;1.20;;
21593;SDS011;10959;51.328;7.322;2023-04-24T09:55:16;3.50;;;2.10;;
21593;SDS011;10959;51.328;7.322;2023-04-24T09:57:51;2.33;;;2.13;;
21593;SDS011;10959;51.328;7.322;2023-04-24T10:00:18;3.57;;;1.90;;
21593;SDS011;10959;51.328;7.322;2023-04-24T10:02:54;3.87;;;1.97;;
21593;SDS011;10959;51.328;7.322;2023-04-24T10:05:25;2.20;;;1.87;;
21593;SDS011;10959;51.328;7.322;2023-04-24T10:07:57;1.93;;;1.50;;
21593;SDS011;10959;51.328;7.322;2023-04-24T10:10:26;2.70;;;1.40;;
21593;SDS011;10959;51.328;7.322;2023-04-24T10:12:53;2.67;;;1.60;;
21593;SDS011;10959;51.328;7.322;2023-04-24T10:15:20;2.87;;;1.67;;
21593;SDS011;10959;51.328;7.322;2023-04-24T10:17:47;3.43;;;1.90;;
21593;SDS011;10959;51.328;7.322;2023-04-24T10:20:17;3.67;;;1.67;;
21593;SDS011;10959;51.328;7.322;2023-04-24T10:22:45;2.10;;;1.80;;
21593;SDS011;10959;51.328;7.322;2023-04-24T10:25:16;2.30;;;2.10;;
21593;SDS011;10959;51.328;7.322;2023-04-24T10:27:46;2.77;;;2.10;;
21593;SDS011;10959;51.328;7.322;2023-04-24T10:30:13;2.47;;;2.27;;
21593;SDS011;10959;51.328;7.322;2023-04-24T10:32:40;2.60;;;2.10;;
21593;SDS011;10959;51.328;7.322;2023-04-24T10:35:07;3.30;;;2.30;;
21593;SDS011;10959;51.328;7.322;2023-04-24T10:37:35;2.90;;;2.67;;
21593;SDS011;10959;51.328;7.322;2023-04-24T10:40:04;2.60;;;2.40;;
21593;SDS011;10959;51.328;7.322;2023-04-24T10:42:34;3.30;;;2.60;;
21593;SDS011;10959;51.328;7.322;2023-04-24T10:45:04;2.43;;;2.23;;
21593;SDS011;10959;51.328;7.322;2023-04-24T10:47:39;3.00;;;2.70;;
21593;SDS011;10959;51.328;7.322;2023-04-24T10:50:07;4.57;;;2.63;;
21593;SDS011;10959;51.328;7.322;2023-04-24T10:52:44;5.27;;;3.17;;
21593;SDS011;10959;51.328;7.322;2023-04-24T10:55:12;5.77;;;3.13;;
21593;SDS011;10959;51.328;7.322;2023-04-24T10:57:41;4.57;;;2.90;;
21593;SDS011;10959;51.328;7.322;2023-04-24T11:00:27;6.63;;;3.83;;
21593;SDS011;10959;51.328;7.322;2023-04-24T11:02:54;4.83;;;3.40;;
21593;SDS011;10959;51.328;7.322;2023-04-24T11:05:22;6.33;;;3.93;;
21593;SDS011;10959;51.328;7.322;2023-04-24T11:10:38;5.70;;;4.10;;
21593;SDS011;10959;51.328;7.322;2023-04-24T11:13:07;8.80;;;4.50;;
21593;SDS011;10959;51.328;7.322;2023-04-24T11:15:34;6.10;;;4.57;;
21593;SDS011;10959;51.328;7.322;2023-04-24T11:18:01;8.93;;;4.97;;
21593;SDS011;10959;51.328;7.322;2023-04-24T11:20:28;5.67;;;4.07;;
21593;SDS011;10959;51.328;7.322;2023-04-24T11:22:55;6.90;;;4.57;;
21593;SDS011;10959;51.328;7.322;2023-04-24T11:25:30;9.17;;;4.40;;
21593;SDS011;10959;51.328;7.322;2023-04-24T11:28:02;7.77;;;4.70;;
21593;SDS011;10959;51.328;7.322;2023-04-24T11:30:31;5.20;;;4.70;;
21593;SDS011;10959;51.328;7.322;2023-04-24T11:33:02;7.63;;;4.53;;
21593;SDS011;10959;51.328;7.322;2023-04-24T11:35:29;8.20;;;5.37;;
21593;SDS011;10959;51.328;7.322;2023-04-24T11:38:02;9.13;;;5.37;;
21593;SDS011;10959;51.328;7.322;2023-04-24T11:40:30;9.77;;;6.07;;
21593;SDS011;10959;51.328;7.322;2023-04-24T11:42:56;12.03;;;6.10;;
21593;SDS011;10959;51.328;7.322;2023-04-24T11:45:26;9.93;;;5.90;;
21593;SDS011;10959;51.328;7.322;2023-04-24T11:47:55;9.33;;;5.70;;
21593;SDS011;10959;51.328;7.322;2023-04-24T11:50:23;7.87;;;5.60;;
21593;SDS011;10959;51.328;7.322;2023-04-24T11:52:52;14.03;;;6.53;;
21593;SDS011;10959;51.328;7.322;2023-04-24T11:55:22;14.23;;;5.30;;
21593;SDS011;10959;51.328;7.322;2023-04-24T11:57:52;8.20;;;4.90;;
21593;SDS011;10959;51.328;7.322;2023-04-24T12:00:22;9.83;;;4.77;;
21593;SDS011;10959;51.328;7.322;2023-04-24T12:02:49;9.67;;;4.63;;
21593;SDS011;10959;51.328;7.322;2023-04-24T12:05:20;7.67;;;3.97;;
21593;SDS011;10959;51.328;7.322;2023-04-24T12:07:47;8.63;;;4.93;;
21593;SDS011;10959;51.328;7.322;2023-04-24T12:10:14;9.60;;;5.50;;
21593;SDS011;10959;51.328;7.322;2023-04-24T12:12:40;6.93;;;4.60;;
21593;SDS011;10959;51.328;7.322;2023-04-24T12:15:07;10.10;;;4.00;;
21593;SDS011;10959;51.328;7.322;2023-04-24T12:17:35;5.67;;;3.60;;
21593;SDS011;10959;51.328;7.322;2023-04-24T12:20:03;8.13;;;3.53;;
21593;SDS011;10959;51.328;7.322;2023-04-24T12:22:46;5.90;;;3.87;;
21593;SDS011;10959;51.328;7.322;2023-04-24T12:25:13;5.27;;;3.33;;
21593;SDS011;10959;51.328;7.322;2023-04-24T12:27:41;7.03;;;3.57;;
21593;SDS011;10959;51.328;7.322;2023-04-24T12:30:09;7.77;;;3.43;;
21593;SDS011;10959;51.328;7.322;2023-04-24T12:32:40;8.23;;;3.63;;
21593;SDS011;10959;51.328;7.322;2023-04-24T12:35:08;6.30;;;3.00;;
21593;SDS011;10959;51.328;7.322;2023-04-24T12:37:35;6.13;;;3.40;;
21593;SDS011;10959;51.328;7.322;2023-04-24T12:40:04;9.10;;;3.50;;
21593;SDS011;10959;51.328;7.322;2023-04-24T12:42:32;7.50;;;3.60;;
21593;SDS011;10959;51.328;7.322;2023-04-24T12:45:00;10.10;;;3.47;;
21593;SDS011;10959;51.328;7.322;2023-04-24T12:47:29;10.23;;;3.57;;
21593;SDS011;10959;51.328;7.322;2023-04-24T12:49:56;8.00;;;3.23;;
21593;SDS011;10959;51.328;7.322;2023-04-24T12:52:23;8.73;;;3.40;;
21593;SDS011;10959;51.328;7.322;2023-04-24T12:54:51;3.53;;;2.60;;
21593;SDS011;10959;51.328;7.322;2023-04-24T12:57:20;7.93;;;3.00;;
21593;SDS011;10959;51.328;7.322;2023-04-24T12:59:47;7.63;;;3.30;;
21593;SDS011;10959;51.328;7.322;2023-04-24T13:02:13;6.57;;;2.80;;
21593;SDS011;10959;51.328;7.322;2023-04-24T13:04:42;9.27;;;2.80;;
21593;SDS011;10959;51.328;7.322;2023-04-24T13:07:10;5.90;;;2.77;;
21593;SDS011;10959;51.328;7.322;2023-04-24T13:09:37;5.03;;;2.50;;
21593;SDS011;10959;51.328;7.322;2023-04-24T13:12:04;5.07;;;2.43;;
21593;SDS011;10959;51.328;7.322;2023-04-24T13:14:32;8.57;;;2.97;;
21593;SDS011;10959;51.328;7.322;2023-04-24T13:16:58;8.40;;;3.43;;
21593;SDS011;10959;51.328;7.322;2023-04-24T13:19:25;6.00;;;2.87;;
21593;SDS011;10959;51.328;7.322;2023-04-24T13:21:53;6.07;;;2.80;;
21593;SDS011;10959;51.328;7.322;2023-04-24T13:24:21;4.90;;;2.60;;
21593;SDS011;10959;51.328;7.322;2023-04-24T13:26:49;4.20;;;2.90;;
21593;SDS011;10959;51.328;7.322;2023-04-24T13:29:16;4.67;;;2.17;;
21593;SDS011;10959;51.328;7.322;2023-04-24T13:31:43;4.93;;;2.20;;
21593;SDS011;10959;51.328;7.322;2023-04-24T13:34:10;3.00;;;2.10;;
21593;SDS011;10959;51.328;7.322;2023-04-24T13:36:37;4.17;;;1.87;;
21593;SDS011;10959;51.328;7.322;2023-04-24T13:39:03;4.50;;;1.80;;
21593;SDS011;10959;51.328;7.322;2023-04-24T13:41:32;3.57;;;1.77;;
21593;SDS011;10959;51.328;7.322;2023-04-24T13:43:59;5.37;;;1.80;;
21593;SDS011;10959;51.328;7.322;2023-04-24T13:46:26;3.67;;;1.83;;
21593;SDS011;10959;51.328;7.322;2023-04-24T13:48:54;3.63;;;1.50;;
21593;SDS011;10959;51.328;7.322;2023-04-24T13:51:21;3.60;;;1.80;;
21593;SDS011;10959;51.328;7.322;2023-04-24T13:53:52;4.70;;;1.70;;
21593;SDS011;10959;51.328;7.322;2023-04-24T13:56:18;5.77;;;1.93;;
21593;SDS011;10959;51.328;7.322;2023-04-24T13:58:46;2.83;;;1.50;;
21593;SDS011;10959;51.328;7.322;2023-04-24T14:01:12;3.40;;;1.60;;
21593;SDS011;10959;51.328;7.322;2023-04-24T14:03:40;7.63;;;1.80;;
21593;SDS011;10959;51.328;7.322;2023-04-24T14:06:09;3.77;;;1.47;;
21593;SDS011;10959;51.328;7.322;2023-04-24T14:08:36;3.80;;;1.83;;
21593;SDS011;10959;51.328;7.322;2023-04-24T14:11:02;3.57;;;1.53;;
21593;SDS011;10959;51.328;7.322;2023-04-24T14:13:29;6.07;;;1.70;;
21593;SDS011;10959;51.328;7.322;2023-04-24T14:15:56;4.53;;;1.90;;
21593;SDS011;10959;51.328;7.322;2023-04-24T14:18:22;4.47;;;2.00;;
21593;SDS011;10959;51.328;7.322;2023-04-24T14:20:49;2.70;;;1.60;;
21593;SDS011;10959;51.328;7.322;2023-04-24T14:23:17;3.93;;;1.93;;
21593;SDS011;10959;51.328;7.322;2023-04-24T14:25:49;2.40;;;1.13;;
21593;SDS011;10959;51.328;7.322;2023-04-24T14:28:17;4.67;;;1.33;;
21593;SDS011;10959;51.328;7.322;2023-04-24T14:30:44;4.17;;;1.30;;
21593;SDS011;10959;51.328;7.322;2023-04-24T14:33:10;2.50;;;1.40;;
21593;SDS011;10959;51.328;7.322;2023-04-24T14:35:37;1.70;;;1.13;;
21593;SDS011;10959;51.328;7.322;2023-04-24T14:38:04;2.50;;;1.40;;
21593;SDS011;10959;51.328;7.322;2023-04-24T14:40:32;2.10;;;1.10;;
21593;SDS011;10959;51.328;7.322;2023-04-24T14:42:59;5.43;;;2.03;;
21593;SDS011;10959;51.328;7.322;2023-04-24T14:45:25;1.63;;;1.07;;
21593;SDS011;10959;51.328;7.322;2023-04-24T14:47:52;1.83;;;1.30;;
21593;SDS011;10959;51.328;7.322;2023-04-24T14:50:20;5.67;;;1.40;;
21593;SDS011;10959;51.328;7.322;2023-04-24T14:52:46;5.07;;;1.13;;